Byron, Illinois
Current Conditions -  °F | °C
As of 7:54 PM on Thursday 20 Nov 2014 (Local Time) from KRFD Reporting Station
Clear Clear  
Wind Chill:   Ceiling: Unl
Heat Index: 16°   Visibility: 10mi
Dew Point:   Wind: 10mph
Humidity: 59%   Direction: 300°WNW
Pressure: 30.25"   Gusts: NA
Location:  42.13°N, 89.26°W
Report Text: KRFD 210154Z 30009KT 10SM CLR M09/M16 A3025 RMK AO2 SLP258 T10891156
Loading
Personal Weather Stations






























Interactive Weather Map New forecast layout! Learn more

10-Day Weather Forecast

Advertisements
Track Severe Weather on mobile